الصفحة الرئيسية
METAR-TAF:

METAR-TAF

مطار :

مطار تشيناي الدولي

تشيناي, الهند

دائرة عرض: 13-00N, خط طول: 080-11E, ارتفاع: 10 متر

مراقبة الطقس الحالي

تاريخ ووقت الإصدار 12ساعات و 26 دقيقة قبل الساعة 05:00UTC
ريح 11 عقدة من الغرب/الجنوب الغربي
درجة الحرارة 34°درجة مئوية
الرطوبة 53%
ضغط 1007 hPa
الرؤية: 7000 متر
غيوم قليلة على ارتفاع 2000 قدم

METAR: VOMM 210500Z 25011KT 7000 FEW020 34/23 Q1007 NOSIG

زمن: 22:56 (17:26 UTC)

توقعات

تاريخ ووقت الإصدار 12ساعات و 26 دقيقة قبل الساعة 05:00UTC
التوقعات صالحة من21 الساعة 06 UTC إلى 22 الساعة 12 UTC
ريح 10 عقدة من الغرب
الرؤية: 6000 متر
غيوم قليلة على ارتفاع 2000 قدم
أصبح
من 21 الساعة 12 UTC إلى 21 الساعة 13 UTC
ريح 5 عقدة من الجنوب/الجنوب الغربي
مؤقت
من 21 الساعة 12 UTC إلى 21 الساعة 18 UTC
غيوم متفرقة على ارتفاع 2000 قدم
غيوم قليلة على ارتفاع 2500 قدم, مزنة ركامية.
غيوم متفرقة على ارتفاع 10000 قدم
أصبح
من 21 الساعة 21 UTC إلى 21 الساعة 22 UTC
ريح 10 عقدة من الغرب

TAF: VOMM 210500Z 2106/2212 26010KT 6000 FEW020 BECMG 2112/2113 21005KT TEMPO 2112/2118 SCT020 FEW025CB SCT100 BECMG 2121/2122 26010KT

أرصاد الطقس والتوقعات من أكثر من 4000 مطار (تقارير الطقس للمطار METAR والتنبؤ بالطقس بالمطارTAF).

المحطات المتاحة هي النقط الصفراء والحمراء على الخريطة.

حرك المؤشر فوق النقطة لمعرفة اسم المحطة.

ثم انقر لمعرفة أرصاد وتوقعات الطقس.

لتغيير الخارطة: اضغط على الأزرار الخضراء مع رمز الصليب الأسود للتكبير. على الزر الأخضر مع شرطة للتصغير، أو على الأسهم الخضراء للخرائط المجاورة.


METAR-TAF: